Gaithersburg, MD (20882)

11:52 PM EDT on October 21, 2014 (GMT -0400)
Cedar Ridge | Change Station
CLOSE
Current Station
Personal Weather Station
Location: Laytonsville, MD
Elevation: 620 ft
Nearby Weather Stations

Elev 620 ft 39.27 °N, 77.19 °W | Updated 1 second ago

Rain
Rain
51.4 °F
Feels Like 51.4 °F
N
0.0
Wind Variable Wind from East
Gusts 0.0 mph

Today
High -- | Low -- °F
--% Chance of Precip.
Yesterday
High -- | Low -- °F
Precip. -- in
7:24 AM 6:21 PM
Waning Crescent, 3% visible
Pressure 29.96 in
Visibility 7.0 miles
Clouds Overcast 6000 ft
Dew Point 50 °F
Humidity 95%
Rainfall 0.11 in
Snow Depth Not available.
UV 0 out of 12
Pollen 1.70 out of 12
Air Quality Not available.
Flu Activity Sporadic
METAR KGAI 220335Z 31004KT 7SM OVC060 11/09 A2996 RMK AO1 P0008

More Conditions Fewer Conditions

Pressure 29.96 in
Visibility 7.0 miles
Clouds Overcast 6000 ft
Dew Point 50 °F
Humidity 95%
Rainfall 0.11 in
Snow Depth Not available.
UV 0 out of 12
Pollen 1.70 out of 12
Air Quality Not available.
Flu Activity Sporadic
METAR KGAI 220335Z 31004KT 7SM OVC060 11/09 A2996 RMK AO1 P0008

More Conditions Fewer Conditions

10-Day Weather Forecast

Almanac

Astronomy

Oct. 21, 2014 Rise Set
Actual Time 7:24 AM EDT 6:21 PM EDT
Civil Twilight 6:57 AM EDT 6:48 PM EDT
Nautical Twilight 6:26 AM EDT 7:19 PM EDT
Astronomical Twilight 5:55 AM EDT 7:50 PM EDT
Moon 5:07 AM EDT (10/21) 5:13 PM EDT (10/21)
Length of Visible Light 11h 51m
Length of Day
10h 56m
Tomorrow will be 2m 24s shorter.
Waning Crescent, 3% of the Moon is Illuminated
Today
Waning Crescent
Oct 23
New
Oct 30
First Quarter
Nov 6
Full
Nov 14
Last Quarter

Today's Extremes

State Highs State Lows

Community

WunderPhotos

Upload Photos

1,763,874 photos uploaded!

Nearby

Snow Depth

Station Depth Elevation
No new snow has been reported.

Earthquake Activity

City Distance Mag. Time & Date
No recent earthquake activity has been reported nearby.
Minimum magnitude displayed is 2.5.

Coastal Water Temperatures

Place Temperature
Washington, DC 63.0 °F
Baltimore, MD 66.0 °F
Solomons Island, MD 66.0 °F

Nearby Weather Stations